Time;durP1;ratioP1;P1;durP2;ratioP2;P2;SDS_P1;SDS_P2;PMS_P1;PMS_P2;Temp;Humidity;BMP_temperature;BMP_pressure;BME280_temperature;BME280_humidity;BME280_pressure;Samples;Min_cycle;Max_cycle;Signal;HPM_P1;HPM_P2
2021/08/31 00:00:05;;;;;;;9.55;7.10;;;17.20;99.90;;;;;;5032655;28;20087;-68
2021/08/31 00:02:30;;;;;;;9.88;7.25;;;17.10;99.90;;;;;;5032648;28;20048;-67
2021/08/31 00:04:58;;;;;;;11.95;6.90;;;17.10;99.90;;;;;;5032011;28;20470;-68
2021/08/31 00:07:24;;;;;;;11.70;7.75;;;17.10;99.90;;;;;;5032506;28;20444;-68
2021/08/31 00:09:50;;;;;;;8.60;6.45;;;17.10;99.90;;;;;;5032646;28;20040;-68
2021/08/31 00:12:16;;;;;;;10.85;7.18;;;17.10;99.90;;;;;;5032326;28;20034;-68
2021/08/31 00:14:42;;;;;;;10.73;6.47;;;16.90;99.90;;;;;;5033401;28;20394;-68
2021/08/31 00:17:08;;;;;;;11.50;7.07;;;17.00;99.90;;;;;;5032733;28;20026;-68
2021/08/31 00:19:34;;;;;;;9.35;6.43;;;17.00;99.90;;;;;;5033371;28;20041;-68
2021/08/31 00:22:00;;;;;;;11.77;6.32;;;17.00;99.90;;;;;;5033071;28;20447;-67
2021/08/31 00:24:26;;;;;;;11.68;6.80;;;17.00;99.90;;;;;;5037347;28;20029;-67
2021/08/31 00:26:52;;;;;;;11.10;6.85;;;17.00;99.90;;;;;;5051763;28;20029;-67
2021/08/31 00:29:17;;;;;;;12.20;6.50;;;16.90;99.90;;;;;;5052810;28;20083;-68
2021/08/31 00:31:43;;;;;;;12.57;7.40;;;17.00;99.90;;;;;;5052888;28;20044;-67
2021/08/31 00:34:09;;;;;;;11.38;6.32;;;17.00;99.90;;;;;;5035012;28;20108;-68
2021/08/31 00:36:35;;;;;;;10.13;6.70;;;17.00;99.90;;;;;;5052996;28;20025;-68
2021/08/31 00:39:00;;;;;;;9.23;6.43;;;17.00;99.90;;;;;;5053104;28;20044;-67
2021/08/31 00:41:27;;;;;;;10.27;6.40;;;17.00;99.90;;;;;;5047623;28;20018;-67
2021/08/31 00:43:53;;;;;;;10.32;6.43;;;17.00;99.90;;;;;;5032786;28;20034;-67
2021/08/31 00:46:22;;;;;;;8.43;6.40;;;16.90;99.90;;;;;;5031852;28;20036;-67
2021/08/31 00:48:52;;;;;;;8.80;6.38;;;16.90;99.90;;;;;;5032923;28;20033;-68
2021/08/31 00:51:24;;;;;;;11.60;6.45;;;16.80;99.90;;;;;;5047747;28;20577;-67
2021/08/31 00:53:51;;;;;;;11.35;6.60;;;16.80;99.90;;;;;;5052609;28;20040;-67
2021/08/31 00:56:18;;;;;;;13.00;6.88;;;16.70;99.90;;;;;;5051310;28;20104;-68
2021/08/31 00:58:44;;;;;;;12.52;7.57;;;16.50;99.90;;;;;;5051210;28;20052;-68
2021/08/31 01:01:10;;;;;;;9.15;6.47;;;16.60;99.90;;;;;;5051723;28;20033;-67
2021/08/31 01:03:37;;;;;;;8.10;5.78;;;16.50;99.90;;;;;;5050372;28;20039;-67
2021/08/31 01:06:05;;;;;;;11.90;6.47;;;16.50;99.90;;;;;;5052379;28;20017;-67
2021/08/31 01:08:31;;;;;;;10.32;5.97;;;16.40;99.90;;;;;;5052437;28;20033;-67
2021/08/31 01:11:01;;;;;;;11.10;7.00;;;16.30;99.90;;;;;;5052655;28;20036;-68
2021/08/31 01:13:35;;;;;;;14.63;6.88;;;16.30;99.90;;;;;;5051049;28;20115;-67
2021/08/31 01:16:05;;;;;;;10.60;6.32;;;16.20;99.90;;;;;;5034423;28;20072;-68
2021/08/31 01:18:31;;;;;;;11.55;6.78;;;16.20;99.90;;;;;;5051960;28;20194;-68
2021/08/31 01:20:59;;;;;;;10.57;6.53;;;16.10;99.90;;;;;;5052406;28;20146;-68
2021/08/31 01:23:30;;;;;;;8.75;6.45;;;16.10;99.90;;;;;;5052450;28;20041;-68
2021/08/31 01:25:58;;;;;;;10.07;6.50;;;16.10;99.90;;;;;;5052548;28;20031;-68
2021/08/31 01:28:29;;;;;;;10.95;6.85;;;16.00;99.90;;;;;;5050605;28;20047;-67
2021/08/31 01:30:57;;;;;;;12.02;6.60;;;16.00;99.90;;;;;;5052304;28;20032;-67
2021/08/31 01:33:27;;;;;;;11.90;6.28;;;16.00;99.90;;;;;;5051673;28;20032;-68
2021/08/31 01:35:53;;;;;;;9.10;6.65;;;15.90;99.90;;;;;;5051945;28;20032;-67
2021/08/31 01:38:19;;;;;;;8.60;6.43;;;15.70;99.90;;;;;;5052082;28;20032;-68
2021/08/31 01:40:46;;;;;;;10.98;6.47;;;15.80;99.90;;;;;;5050747;28;20031;-68
2021/08/31 01:43:26;;;;;;;9.93;6.30;;;15.70;99.90;;;;;;5050692;28;20036;-67
2021/08/31 01:45:53;;;;;;;11.98;6.20;;;15.70;99.90;;;;;;5052170;28;20052;-68
2021/08/31 01:48:20;;;;;;;11.98;7.10;;;15.70;99.90;;;;;;5050545;28;20048;-67
2021/08/31 01:50:45;;;;;;;9.75;6.22;;;15.50;99.90;;;;;;5053099;28;20020;-67
2021/08/31 01:53:11;;;;;;;10.93;6.45;;;15.50;99.90;;;;;;5054743;28;20082;-67
2021/08/31 01:55:37;;;;;;;11.60;6.72;;;15.50;99.90;;;;;;5056149;28;20377;-68
2021/08/31 01:58:03;;;;;;;9.77;6.95;;;15.40;99.90;;;;;;5054763;28;20150;-67
2021/08/31 02:00:30;;;;;;;11.18;7.00;;;15.30;99.90;;;;;;5054743;28;20558;-68
2021/08/31 02:02:56;;;;;;;10.15;6.88;;;15.20;99.90;;;;;;5045572;28;20087;-68
2021/08/31 02:05:22;;;;;;;10.98;7.07;;;15.20;99.90;;;;;;5034715;28;20037;-68
2021/08/31 02:07:48;;;;;;;11.25;7.15;;;15.20;99.90;;;;;;5035846;28;20030;-68
2021/08/31 02:10:13;;;;;;;12.27;6.57;;;15.30;99.90;;;;;;5035587;28;20036;-67
2021/08/31 02:12:39;;;;;;;10.18;6.65;;;15.20;99.90;;;;;;5035988;28;20371;-67
2021/08/31 02:15:05;;;;;;;12.38;7.50;;;15.20;99.90;;;;;;5050854;28;20037;-67
2021/08/31 02:17:31;;;;;;;11.52;7.18;;;15.20;99.90;;;;;;5050582;28;20057;-68
2021/08/31 02:19:57;;;;;;;9.68;6.70;;;15.10;99.90;;;;;;5035540;28;20044;-68
2021/08/31 02:22:23;;;;;;;11.00;7.88;;;15.10;99.90;;;;;;5035491;28;20045;-67
2021/08/31 02:24:48;;;;;;;10.50;7.18;;;15.00;99.90;;;;;;5035370;28;20105;-67
2021/08/31 02:27:14;;;;;;;12.07;8.40;;;15.00;99.90;;;;;;5050771;28;20367;-67
2021/08/31 02:29:40;;;;;;;13.02;7.55;;;14.90;99.90;;;;;;5035264;28;20087;-67
2021/08/31 02:32:06;;;;;;;11.50;7.25;;;14.80;99.90;;;;;;5048485;28;20449;-67
2021/08/31 02:34:33;;;;;;;13.18;7.05;;;14.80;99.90;;;;;;5055240;28;20033;-67
2021/08/31 02:36:59;;;;;;;10.65;6.57;;;14.70;99.90;;;;;;5053839;28;20036;-67
2021/08/31 02:39:25;;;;;;;11.55;7.13;;;14.70;99.90;;;;;;5055001;28;20424;-68
2021/08/31 02:41:51;;;;;;;14.95;7.88;;;14.80;99.90;;;;;;5053956;28;20099;-67
2021/08/31 02:44:17;;;;;;;10.65;7.07;;;14.80;99.90;;;;;;5053860;28;20036;-67
2021/08/31 02:46:43;;;;;;;12.40;7.22;;;14.80;99.90;;;;;;5054934;28;20117;-67
2021/08/31 02:49:09;;;;;;;9.98;6.53;;;14.80;99.90;;;;;;5054877;28;20037;-67
2021/08/31 02:51:34;;;;;;;10.90;7.75;;;14.80;99.90;;;;;;5053833;28;20074;-67
2021/08/31 02:54:00;;;;;;;11.80;7.57;;;14.60;99.90;;;;;;5055094;28;20036;-67
2021/08/31 02:56:26;;;;;;;10.15;6.88;;;14.50;99.90;;;;;;5055040;28;20124;-68
2021/08/31 02:58:52;;;;;;;14.63;7.60;;;14.40;99.90;;;;;;5053390;28;20120;-68
2021/08/31 03:04:03;;;;;;;13.00;7.45;;;14.40;99.90;;;;;;5034869;28;20044;-67
2021/08/31 03:06:32;;;;;;;14.45;7.57;;;14.30;99.90;;;;;;5033676;28;20071;-67
2021/08/31 03:08:58;;;;;;;14.30;7.20;;;14.20;99.90;;;;;;5034945;28;20033;-67
2021/08/31 03:11:25;;;;;;;12.32;7.25;;;14.40;99.90;;;;;;5033410;28;20044;-67
2021/08/31 03:13:51;;;;;;;10.35;6.78;;;14.40;99.90;;;;;;5033292;28;20072;-67
2021/08/31 03:16:17;;;;;;;9.98;7.07;;;14.40;99.90;;;;;;5034556;28;20076;-67
2021/08/31 03:18:43;;;;;;;13.20;7.95;;;14.60;99.90;;;;;;5033039;28;20084;-67
2021/08/31 03:21:09;;;;;;;10.55;7.43;;;14.60;99.90;;;;;;5033039;28;20036;-67
2021/08/31 03:23:35;;;;;;;11.93;7.45;;;14.50;99.90;;;;;;5034420;28;20034;-67
2021/08/31 03:26:01;;;;;;;12.35;7.28;;;14.60;99.90;;;;;;5034284;28;20390;-67
2021/08/31 03:28:26;;;;;;;11.48;7.00;;;14.60;99.90;;;;;;5032901;28;20044;-68
2021/08/31 03:30:52;;;;;;;13.70;8.43;;;14.50;99.90;;;;;;5034084;28;20025;-67
2021/08/31 03:33:18;;;;;;;11.10;7.10;;;14.50;99.90;;;;;;5034128;28;20033;-67
2021/08/31 03:35:44;;;;;;;16.70;8.52;;;14.60;99.90;;;;;;5034033;28;20381;-67
2021/08/31 03:38:09;;;;;;;12.77;7.65;;;14.50;99.90;;;;;;5034042;28;20041;-68
2021/08/31 03:40:36;;;;;;;11.90;7.68;;;14.50;99.90;;;;;;5034189;28;20036;-68
2021/08/31 03:43:02;;;;;;;13.88;7.72;;;14.50;99.90;;;;;;5033908;28;20124;-68
2021/08/31 03:45:28;;;;;;;11.77;7.95;;;14.50;99.90;;;;;;5049237;28;20113;-68
2021/08/31 03:47:53;;;;;;;10.65;7.20;;;14.50;99.90;;;;;;5033669;28;20026;-68
2021/08/31 03:50:19;;;;;;;12.43;7.72;;;14.40;99.90;;;;;;5046936;28;20425;-68
2021/08/31 03:52:45;;;;;;;12.98;7.82;;;14.40;99.90;;;;;;5032619;28;20041;-71
2021/08/31 03:55:11;;;;;;;13.25;7.10;;;14.40;99.90;;;;;;5039628;28;20028;-71
2021/08/31 03:57:37;;;;;;;12.45;7.30;;;14.40;99.90;;;;;;5052457;28;20550;-71
2021/08/31 04:00:05;;;;;;;13.32;8.40;;;14.50;99.90;;;;;;5052829;28;20124;-77
2021/08/31 04:02:30;;;;;;;12.55;7.97;;;14.50;99.90;;;;;;5053424;28;20029;-75
2021/08/31 04:04:56;;;;;;;12.10;7.30;;;14.40;99.90;;;;;;5053392;28;20059;-74
2021/08/31 04:07:22;;;;;;;12.45;7.78;;;14.40;99.90;;;;;;5049512;28;20551;-75
2021/08/31 04:09:47;;;;;;;13.23;8.10;;;14.30;99.90;;;;;;5052421;28;20037;-76
2021/08/31 04:12:14;;;;;;;14.27;8.35;;;14.30;99.90;;;;;;5053385;28;20044;-73
2021/08/31 04:14:39;;;;;;;11.93;7.53;;;14.30;99.90;;;;;;5053070;28;20029;-73
2021/08/31 04:17:05;;;;;;;12.57;7.60;;;14.20;99.90;;;;;;5051773;28;20031;-73
2021/08/31 04:19:31;;;;;;;10.95;7.60;;;14.30;99.90;;;;;;5049688;28;20116;-75
2021/08/31 04:21:57;;;;;;;13.35;7.95;;;14.30;99.90;;;;;;5033227;28;20029;-73
2021/08/31 04:24:22;;;;;;;12.05;7.95;;;14.30;99.90;;;;;;5032208;28;20041;-75
2021/08/31 04:26:48;;;;;;;12.70;7.82;;;14.10;99.90;;;;;;5033424;28;20041;-75
2021/08/31 04:29:14;;;;;;;12.60;8.38;;;14.20;99.90;;;;;;5032932;28;20052;-74
2021/08/31 04:31:40;;;;;;;22.08;14.40;;;14.10;99.90;;;;;;5033044;28;20079;-73
2021/08/31 04:34:05;;;;;;;13.75;8.57;;;14.00;99.90;;;;;;5033162;28;20044;-73
2021/08/31 04:36:31;;;;;;;16.17;9.45;;;14.00;99.90;;;;;;5032513;28;20045;-74
2021/08/31 04:38:57;;;;;;;12.52;8.75;;;14.00;99.90;;;;;;5031972;28;20029;-73
2021/08/31 04:41:22;;;;;;;12.85;7.75;;;14.00;99.90;;;;;;5033080;28;20084;-73
2021/08/31 04:43:48;;;;;;;14.95;9.32;;;14.10;99.90;;;;;;5032940;28;20422;-73
2021/08/31 04:46:14;;;;;;;14.10;7.70;;;14.10;99.90;;;;;;5032692;28;20410;-73
2021/08/31 04:48:40;;;;;;;11.38;7.70;;;14.10;99.90;;;;;;5031861;28;20025;-72
2021/08/31 04:51:06;;;;;;;12.50;9.18;;;14.10;99.90;;;;;;5047652;28;20029;-72
2021/08/31 04:53:31;;;;;;;12.98;7.80;;;14.20;99.90;;;;;;5051637;28;20068;-72
2021/08/31 04:55:57;;;;;;;12.68;8.55;;;14.20;99.90;;;;;;5051355;28;20028;-72
2021/08/31 04:58:23;;;;;;;14.38;7.93;;;14.20;99.90;;;;;;5051392;28;20037;-72
2021/08/31 05:00:49;;;;;;;12.07;8.13;;;14.30;99.90;;;;;;5052679;28;20025;-72
2021/08/31 05:03:15;;;;;;;10.95;7.18;;;14.20;99.90;;;;;;5051132;28;20029;-71
2021/08/31 05:05:42;;;;;;;11.05;7.30;;;14.20;99.90;;;;;;5052246;28;20036;-71
2021/08/31 05:08:09;;;;;;;14.55;8.63;;;14.20;99.90;;;;;;5052498;28;20052;-72
2021/08/31 05:10:35;;;;;;;12.18;8.10;;;14.10;99.90;;;;;;5052501;28;20057;-73
2021/08/31 05:13:00;;;;;;;15.00;7.93;;;14.10;99.90;;;;;;5051301;28;20068;-72
2021/08/31 05:15:27;;;;;;;15.07;8.02;;;14.20;99.90;;;;;;5052220;28;20025;-72
2021/08/31 05:17:54;;;;;;;17.95;8.32;;;14.10;99.90;;;;;;5034158;28;20052;-72
2021/08/31 05:20:20;;;;;;;14.60;7.53;;;14.10;99.90;;;;;;5041055;28;20037;-59
2021/08/31 05:22:45;;;;;;;11.73;7.75;;;14.10;99.90;;;;;;5032373;28;20033;-59
2021/08/31 05:25:11;;;;;;;15.27;8.32;;;14.20;99.90;;;;;;5031895;28;20126;-57
2021/08/31 05:27:37;;;;;;;14.73;8.75;;;14.10;99.90;;;;;;5031234;28;20200;-59
2021/08/31 05:30:06;;;;;;;12.85;7.85;;;14.10;99.90;;;;;;5032105;28;20029;-57
2021/08/31 05:32:32;;;;;;;15.27;8.70;;;14.20;99.90;;;;;;5032227;28;20045;-57
2021/08/31 05:34:58;;;;;;;14.73;8.43;;;14.30;99.90;;;;;;5032323;28;20033;-57
2021/08/31 05:37:23;;;;;;;12.20;7.97;;;14.20;99.90;;;;;;5031846;28;20056;-57
2021/08/31 05:39:49;;;;;;;14.73;7.53;;;14.40;99.90;;;;;;5032446;28;20029;-72
2021/08/31 05:42:15;;;;;;;11.93;7.80;;;14.60;99.90;;;;;;5047538;28;20033;-72
2021/08/31 05:44:41;;;;;;;10.82;6.72;;;14.60;99.90;;;;;;5047501;28;20107;-72
2021/08/31 05:47:07;;;;;;;13.35;7.07;;;14.80;99.90;;;;;;5046943;28;20022;-72
2021/08/31 05:49:35;;;;;;;15.85;7.70;;;14.80;99.90;;;;;;5031708;28;20544;-72
2021/08/31 05:52:01;;;;;;;11.15;6.97;;;14.90;99.90;;;;;;5047054;28;20044;-72
2021/08/31 05:54:27;;;;;;;11.30;6.95;;;15.00;99.90;;;;;;5032190;28;20040;-72
2021/08/31 05:56:58;;;;;;;11.57;7.57;;;14.90;99.90;;;;;;5032016;28;20029;-72
2021/08/31 05:59:24;;;;;;;10.85;7.28;;;15.00;99.90;;;;;;5034517;28;20088;-72
2021/08/31 06:01:50;;;;;;;12.90;6.90;;;15.00;99.90;;;;;;5031952;28;20034;-72
2021/08/31 06:04:16;;;;;;;13.57;6.82;;;15.10;99.90;;;;;;5031787;28;20038;-71
2021/08/31 06:06:42;;;;;;;10.15;6.97;;;15.20;99.90;;;;;;5030575;28;20029;-72
2021/08/31 06:09:08;;;;;;;10.75;7.47;;;15.30;99.90;;;;;;5016470;28;20087;-72
2021/08/31 06:11:39;;;;;;;11.15;7.22;;;15.30;99.90;;;;;;5029401;28;20098;-72
2021/08/31 06:14:06;;;;;;;;;;;15.40;99.90;;;;;;5029518;28;20033;-72
2021/08/31 06:16:33;;;;;;;11.25;6.78;;;15.50;99.90;;;;;;5030327;28;19948;-72
2021/08/31 06:19:00;;;;;;;10.07;6.20;;;15.60;99.90;;;;;;5028562;28;20087;-72
2021/08/31 06:21:26;;;;;;;11.93;6.63;;;15.70;99.90;;;;;;5029289;28;20052;-72
2021/08/31 06:23:52;;;;;;;10.13;6.55;;;15.70;99.90;;;;;;5029046;28;20474;-72
2021/08/31 06:26:18;;;;;;;11.23;6.55;;;15.70;99.90;;;;;;5029610;28;20048;-72
2021/08/31 06:28:44;;;;;;;11.23;6.57;;;15.60;99.90;;;;;;5012762;28;20033;-72
2021/08/31 06:31:10;;;;;;;9.55;6.43;;;15.70;99.90;;;;;;5030285;28;20529;-72
2021/08/31 06:33:36;;;;;;;9.00;6.25;;;15.70;99.90;;;;;;5013071;28;20034;-72
2021/08/31 06:36:02;;;;;;;11.63;6.03;;;15.70;99.90;;;;;;5028915;28;20040;-72
2021/08/31 06:38:28;;;;;;;10.23;6.25;;;15.80;99.90;;;;;;5033768;28;20510;-72
2021/08/31 06:40:53;;;;;;;9.93;6.47;;;15.80;99.90;;;;;;5031177;28;20129;-72
2021/08/31 06:43:19;;;;;;;9.68;6.18;;;15.90;99.90;;;;;;5012059;28;20033;-71
2021/08/31 06:45:45;;;;;;;8.68;6.10;;;15.90;99.90;;;;;;5012731;28;20034;-72
2021/08/31 06:48:11;;;;;;;11.38;6.50;;;15.90;99.90;;;;;;5021299;28;20121;-72
2021/08/31 06:50:37;;;;;;;9.23;6.57;;;16.00;99.90;;;;;;5028482;28;20093;-72
2021/08/31 06:53:03;;;;;;;10.38;5.55;;;16.10;99.90;;;;;;5031425;28;20034;-72
2021/08/31 06:55:29;;;;;;;8.98;5.63;;;16.10;99.90;;;;;;5032067;28;20029;-72
2021/08/31 06:57:55;;;;;;;11.18;5.63;;;16.30;99.90;;;;;;5032017;28;20478;-72
2021/08/31 07:00:21;;;;;;;10.82;5.65;;;16.30;99.90;;;;;;5032505;28;20104;-72
2021/08/31 07:02:47;;;;;;;9.50;5.53;;;16.40;99.90;;;;;;5032517;28;20120;-71
2021/08/31 07:05:13;;;;;;;10.25;5.55;;;16.60;99.90;;;;;;5032700;28;20479;-72
2021/08/31 07:07:39;;;;;;;11.00;5.72;;;16.50;99.90;;;;;;5031596;28;20095;-72
2021/08/31 07:10:05;;;;;;;10.43;6.07;;;16.60;99.90;;;;;;5032899;28;20025;-72
2021/08/31 07:12:31;;;;;;;9.95;5.38;;;16.70;99.90;;;;;;5032349;28;20371;-71
2021/08/31 07:14:58;;;;;;;14.85;5.35;;;16.60;99.90;;;;;;5024803;28;20048;-71
2021/08/31 07:17:25;;;;;;;7.75;4.75;;;16.70;99.90;;;;;;5019312;28;20562;-72
2021/08/31 07:19:51;;;;;;;8.48;4.80;;;16.70;99.90;;;;;;5020359;28;20038;-72
2021/08/31 07:22:17;;;;;;;9.05;5.50;;;16.80;99.90;;;;;;5022930;28;20068;-72
2021/08/31 07:24:44;;;;;;;9.35;5.72;;;16.90;99.90;;;;;;5024912;28;20477;-72
2021/08/31 07:27:11;;;;;;;7.55;5.20;;;16.70;99.90;;;;;;5013069;28;20084;-72
2021/08/31 07:29:38;;;;;;;9.93;4.88;;;16.80;99.90;;;;;;5011775;28;20081;-73
2021/08/31 07:32:04;;;;;;;11.13;5.05;;;17.00;99.90;;;;;;5031952;28;20094;-72
2021/08/31 07:34:30;;;;;;;8.57;5.00;;;17.00;99.90;;;;;;5031520;28;20482;-72
2021/08/31 07:36:56;;;;;;;7.55;5.20;;;17.00;99.90;;;;;;5026250;28;20034;-71
2021/08/31 07:39:22;;;;;;;10.60;5.28;;;17.10;99.90;;;;;;5028457;28;20053;-72
2021/08/31 07:41:48;;;;;;;7.72;5.35;;;17.10;99.90;;;;;;5025252;28;20093;-71
2021/08/31 07:44:14;;;;;;;9.10;5.30;;;17.20;99.90;;;;;;5012964;28;20038;-73
2021/08/31 07:46:46;;;;;;;8.25;4.65;;;17.20;99.90;;;;;;5012575;28;20537;-72
2021/08/31 07:49:15;;;;;;;11.00;5.68;;;17.30;99.90;;;;;;5014636;28;20194;-71
2021/08/31 07:51:43;;;;;;;14.70;4.88;;;17.20;99.90;;;;;;5027917;28;20030;-72
2021/08/31 07:54:10;;;;;;;12.68;5.03;;;17.40;99.90;;;;;;5028503;28;20037;-72
2021/08/31 07:56:36;;;;;;;15.27;5.10;;;17.60;99.90;;;;;;5032303;28;20083;-72
2021/08/31 07:59:03;;;;;;;11.88;4.75;;;17.80;99.90;;;;;;5031545;28;20084;-71
2021/08/31 08:01:30;;;;;;;9.77;5.47;;;18.10;99.90;;;;;;5030209;28;20044;-71
2021/08/31 08:03:57;;;;;;;8.23;5.03;;;18.20;99.90;;;;;;5032438;28;20060;-72
2021/08/31 08:06:23;;;;;;;8.85;4.82;;;18.30;99.90;;;;;;5033226;28;20031;-71
2021/08/31 08:08:49;;;;;;;6.82;4.63;;;18.10;99.90;;;;;;5032074;28;20124;-71
2021/08/31 08:11:15;;;;;;;7.88;4.90;;;18.20;99.90;;;;;;5031907;28;20550;-72
2021/08/31 08:13:41;;;;;;;10.10;4.60;;;18.00;99.90;;;;;;5030795;28;20129;-71
2021/08/31 08:16:08;;;;;;;8.63;4.93;;;17.80;99.90;;;;;;5032275;28;20121;-71
2021/08/31 08:18:34;;;;;;;6.97;4.30;;;18.00;99.90;;;;;;5030407;28;20071;-71
2021/08/31 08:21:00;;;;;;;9.40;4.78;;;18.00;99.90;;;;;;5031058;28;20471;-71
2021/08/31 08:23:26;;;;;;;6.90;4.13;;;17.90;99.90;;;;;;5029684;28;20084;-72
2021/08/31 08:25:52;;;;;;;8.20;4.10;;;18.00;99.90;;;;;;5030182;28;20038;-72
2021/08/31 08:28:25;;;;;;;10.00;4.80;;;18.20;99.90;;;;;;5031410;28;20029;-72
2021/08/31 08:30:52;;;;;;;9.20;4.03;;;18.20;99.90;;;;;;5030457;28;20112;-72
2021/08/31 08:33:20;;;;;;;6.82;4.03;;;18.30;99.90;;;;;;5031843;28;20375;-72
2021/08/31 08:35:48;;;;;;;7.20;3.78;;;18.30;99.90;;;;;;5029827;28;20037;-72
2021/08/31 08:38:14;;;;;;;8.02;3.95;;;18.30;99.90;;;;;;5031064;28;20029;-72
2021/08/31 08:40:41;;;;;;;9.55;4.22;;;18.60;99.90;;;;;;5027025;28;20053;-72
2021/08/31 08:43:07;;;;;;;12.75;5.03;;;18.70;99.90;;;;;;5022987;28;20061;-72
2021/08/31 08:45:34;;;;;;;10.30;4.40;;;18.80;99.90;;;;;;5013858;28;20045;-71
2021/08/31 08:48:00;;;;;;;8.55;3.80;;;18.80;99.90;;;;;;5015516;28;20041;-70
2021/08/31 08:50:28;;;;;;;9.95;4.10;;;18.90;99.90;;;;;;5011406;28;20076;-72
2021/08/31 08:52:54;;;;;;;8.80;4.72;;;18.60;99.90;;;;;;5021768;28;20561;-71
2021/08/31 08:55:24;;;;;;;6.72;4.22;;;18.80;99.90;;;;;;5019640;28;20157;-73
2021/08/31 08:57:51;;;;;;;8.35;4.47;;;18.90;99.90;;;;;;5027694;28;20502;-73
2021/08/31 09:00:18;;;;;;;8.80;3.80;;;18.70;99.90;;;;;;5029841;28;20437;-72
2021/08/31 09:02:44;;;;;;;6.65;3.85;;;19.00;99.90;;;;;;5031747;28;20033;-73
2021/08/31 09:05:31;;;;;;;5.88;3.47;;;18.80;99.90;;;;;;5029202;28;20037;-72
2021/08/31 09:08:05;;;;;;;5.80;3.53;;;19.20;99.90;;;;;;5030374;28;20057;-72
2021/08/31 09:10:31;;;;;;;5.80;3.65;;;19.30;99.90;;;;;;5029847;28;20107;-72
2021/08/31 09:12:57;;;;;;;6.30;3.95;;;19.60;99.90;;;;;;5031015;28;20071;-72
2021/08/31 09:15:53;;;;;;;7.30;3.92;;;19.80;99.90;;;;;;5029497;28;20034;-72
2021/08/31 09:18:22;;;;;;;9.93;4.18;;;19.50;99.90;;;;;;5025530;28;20041;-72
2021/08/31 09:20:53;;;;;;;6.45;3.38;;;19.80;99.90;;;;;;5031288;28;20549;-72
2021/08/31 09:23:30;;;;;;;6.95;3.83;;;19.70;99.90;;;;;;5030080;28;20041;-72
2021/08/31 09:26:09;;;;;;;5.43;3.45;;;19.90;99.90;;;;;;5030304;28;20044;-72
2021/08/31 09:28:39;;;;;;;6.18;4.05;;;20.10;99.90;;;;;;5030758;28;20053;-72
2021/08/31 09:31:18;;;;;;;6.63;4.20;;;20.00;99.90;;;;;;5028529;28;20033;-72
2021/08/31 09:33:50;;;;;;;11.50;3.95;;;20.00;99.90;;;;;;5019051;28;20456;-72
2021/08/31 09:36:22;;;;;;;6.63;3.78;;;20.20;99.90;;;;;;5030571;28;20100;-72
2021/08/31 09:39:00;;;;;;;6.93;4.13;;;20.20;99.90;;;;;;5030420;28;20033;-72
2021/08/31 09:41:38;;;;;;;5.00;3.17;;;20.50;99.90;;;;;;5029069;28;20056;-72
2021/08/31 09:44:22;;;;;;;7.80;3.80;;;20.80;99.90;;;;;;5030550;28;20038;-72
2021/08/31 09:46:55;;;;;;;6.05;3.33;;;21.00;99.90;;;;;;5029515;28;20053;-72
2021/08/31 09:49:30;;;;;;;7.30;3.17;;;21.20;99.90;;;;;;5023131;28;20118;-73
2021/08/31 09:52:10;;;;;;;5.88;3.30;;;21.40;99.90;;;;;;5030226;28;20033;-73
2021/08/31 09:54:41;;;;;;;13.30;7.00;;;21.30;99.90;;;;;;5030536;28;20041;-73
2021/08/31 09:57:28;;;;;;;10.50;4.63;;;21.50;99.90;;;;;;5029814;28;20029;-72
2021/08/31 09:59:56;;;;;;;8.85;4.70;;;21.70;99.90;;;;;;5030257;28;20036;-69
2021/08/31 10:02:23;;;;;;;6.47;3.78;;;21.70;99.90;;;;;;5030339;28;20029;-71
2021/08/31 10:04:52;;;;;;;7.25;3.03;;;21.50;99.90;;;;;;5016028;28;20409;-70
2021/08/31 10:07:19;;;;;;;5.40;3.08;;;21.70;99.90;;;;;;5023551;28;20038;-71
2021/08/31 10:09:46;;;;;;;5.70;3.10;;;22.10;99.90;;;;;;5013323;28;20034;-71
2021/08/31 10:12:17;;;;;;;6.13;3.10;;;22.20;99.90;;;;;;5030665;28;20041;-70
2021/08/31 10:14:44;;;;;;;8.77;3.40;;;22.20;99.90;;;;;;5031400;28;20099;-69
2021/08/31 10:17:14;;;;;;;4.97;3.30;;;22.10;99.90;;;;;;5032307;28;20037;-73
2021/08/31 10:19:44;;;;;;;4.45;3.00;;;21.50;99.90;;;;;;5033188;28;20041;-71
2021/08/31 10:22:12;;;;;;;5.65;3.10;;;21.40;99.90;;;;;;5032843;28;20042;-68
2021/08/31 10:24:44;;;;;;;4.68;3.22;;;21.70;99.90;;;;;;5032580;28;20099;-68
2021/08/31 10:27:39;;;;;;;4.97;3.13;;;21.50;99.90;;;;;;5028795;28;20041;-70
2021/08/31 10:30:21;;;;;;;8.27;2.70;;;22.00;99.90;;;;;;5013658;28;20037;-73
2021/08/31 10:33:30;;;;;;;10.48;3.33;;;22.30;99.90;;;;;;5019348;28;20038;-68
2021/08/31 10:35:57;;;;;;;6.63;3.63;;;22.00;99.90;;;;;;5030639;28;20065;-68
2021/08/31 10:38:44;;;;;;;5.45;3.10;;;21.90;99.90;;;;;;5026172;28;20061;-69
2021/08/31 10:41:42;;;;;;;5.38;3.17;;;22.30;99.90;;;;;;5030056;28;20037;-69
2021/08/31 10:44:09;;;;;;;6.55;3.08;;;21.30;99.90;;;;;;5031989;28;20037;-69
2021/08/31 10:47:13;;;;;;;6.75;3.17;;;21.30;99.90;;;;;;5033528;28;20592;-69
2021/08/31 10:49:57;;;;;;;6.97;3.03;;;21.70;99.90;;;;;;5041721;28;20042;-69
2021/08/31 10:52:32;;;;;;;10.52;3.80;;;21.60;99.90;;;;;;5031701;28;20048;-69
2021/08/31 10:54:58;;;;;;;4.32;2.80;;;21.00;99.90;;;;;;5033640;28;20386;-68
2021/08/31 10:57:35;;;;;;;4.85;2.97;;;20.90;99.90;;;;;;5018325;28;20030;-69
2021/08/31 11:00:15;;;;;;;5.68;3.25;;;21.00;99.90;;;;;;5033302;28;20482;-69
2021/08/31 11:02:47;;;;;;;5.25;3.08;;;21.30;99.90;;;;;;5032133;28;20041;-69
2021/08/31 11:05:18;;;;;;;8.73;3.92;;;21.10;99.90;;;;;;5032626;28;20083;-68
2021/08/31 11:07:46;;;;;;;8.93;3.38;;;20.90;99.90;;;;;;5033393;28;20045;-69
2021/08/31 11:10:23;;;;;;;6.57;3.30;;;21.00;99.90;;;;;;5030314;28;20033;-69
2021/08/31 11:12:50;;;;;;;4.55;2.83;;;21.00;99.90;;;;;;5032958;28;20099;-69
2021/08/31 11:15:21;;;;;;;5.85;3.53;;;21.00;99.90;;;;;;5033521;28;20037;-68
2021/08/31 11:17:49;;;;;;;9.77;4.05;;;21.40;99.90;;;;;;5032754;28;20080;-69
2021/08/31 11:20:32;;;;;;;8.75;3.33;;;21.10;99.90;;;;;;5032766;28;20041;-70
2021/08/31 11:23:20;;;;;;;7.78;3.22;;;21.20;99.90;;;;;;5031979;28;20045;-69
2021/08/31 11:25:47;;;;;;;7.13;3.28;;;21.00;99.90;;;;;;5032652;28;20053;-69
2021/08/31 11:28:39;;;;;;;6.97;3.30;;;20.80;99.90;;;;;;5034100;28;20563;-69
2021/08/31 11:31:12;;;;;;;10.32;4.63;;;21.00;99.90;;;;;;5033859;28;20443;-69
2021/08/31 11:33:45;;;;;;;9.40;3.83;;;21.10;99.90;;;;;;5033897;28;20044;-69
2021/08/31 11:36:17;;;;;;;5.63;3.60;;;21.50;99.90;;;;;;5034103;28;20033;-69
2021/08/31 11:38:53;;;;;;;7.88;3.38;;;21.80;99.90;;;;;;5033780;28;20037;-69
2021/08/31 11:41:28;;;;;;;6.57;3.38;;;22.50;99.90;;;;;;5034156;28;20112;-70
2021/08/31 11:43:57;;;;;;;5.20;3.22;;;23.10;99.90;;;;;;5032693;28;20163;-69
2021/08/31 11:46:26;;;;;;;5.13;2.95;;;23.60;98.70;;;;;;5034096;28;20112;-70
2021/08/31 11:49:17;;;;;;;7.82;3.50;;;23.10;99.30;;;;;;5032747;28;20098;-70
2021/08/31 11:52:12;;;;;;;5.75;3.22;;;23.00;99.80;;;;;;5033694;28;20037;-69
2021/08/31 11:54:45;;;;;;;5.95;3.60;;;22.30;99.50;;;;;;5048610;28;20143;-69
2021/08/31 11:57:13;;;;;;;5.38;3.05;;;22.40;99.80;;;;;;5032523;28;20033;-69
2021/08/31 11:59:43;;;;;;;5.07;3.05;;;22.10;99.90;;;;;;5033696;28;20309;-69
2021/08/31 12:02:14;;;;;;;7.70;3.33;;;22.00;99.90;;;;;;5032776;28;20026;-69
2021/08/31 12:04:40;;;;;;;;;;;21.90;99.90;;;;;;5033877;28;20350;-69
2021/08/31 12:07:10;;;;;;;5.05;3.08;;;21.60;99.90;;;;;;5035126;28;19917;-69
2021/08/31 12:09:42;;;;;;;7.22;3.10;;;21.60;99.90;;;;;;5033401;28;20068;-69
2021/08/31 12:12:09;;;;;;;6.13;3.17;;;21.50;99.90;;;;;;5032195;28;20041;-68
2021/08/31 12:14:35;;;;;;;5.15;3.10;;;21.50;99.90;;;;;;5033302;28;20052;-68
2021/08/31 12:17:02;;;;;;;5.80;3.28;;;21.50;99.90;;;;;;5032151;28;20033;-69
2021/08/31 12:19:28;;;;;;;5.63;3.30;;;21.50;99.90;;;;;;5031960;28;20044;-69
2021/08/31 12:22:12;;;;;;;7.10;3.00;;;21.50;99.90;;;;;;5033167;28;20030;-69
2021/08/31 12:24:44;;;;;;;6.00;2.95;;;21.10;99.90;;;;;;5033121;28;20033;-69
2021/08/31 12:27:15;;;;;;;5.82;3.30;;;21.20;99.90;;;;;;5031969;28;20045;-69
2021/08/31 12:29:55;;;;;;;5.85;3.53;;;21.20;99.90;;;;;;5031821;28;20112;-69
2021/08/31 12:32:30;;;;;;;5.95;3.35;;;21.20;99.90;;;;;;5031737;28;20037;-69
2021/08/31 12:35:21;;;;;;;7.05;3.67;;;20.80;99.90;;;;;;5015147;28;20106;-69
2021/08/31 12:37:47;;;;;;;5.43;3.13;;;20.80;99.90;;;;;;5031652;28;20025;-69
2021/08/31 12:40:21;;;;;;;8.20;3.47;;;20.50;99.90;;;;;;5033149;28;20064;-70
2021/08/31 12:42:49;;;;;;;8.40;3.22;;;20.60;99.90;;;;;;5031970;28;20037;-69
2021/08/31 12:45:27;;;;;;;8.25;3.22;;;20.60;99.90;;;;;;5032920;28;20037;-69
2021/08/31 12:47:57;;;;;;;5.30;3.45;;;20.30;99.90;;;;;;5032853;28;20055;-69
2021/08/31 12:50:25;;;;;;;8.27;3.50;;;20.40;99.90;;;;;;5032731;28;20033;-69
2021/08/31 12:53:07;;;;;;;10.23;3.30;;;20.30;99.90;;;;;;5031644;28;20422;-69